createdAt,value
2018-07-24T00:14:06.104Z,13.40
2018-07-24T00:29:10.195Z,14.70
2018-07-24T00:44:14.316Z,13.00
2018-07-24T00:59:18.177Z,15.20
2018-07-24T01:14:21.991Z,16.77
2018-07-24T01:29:25.974Z,16.40
2018-07-24T01:44:29.942Z,17.70
2018-07-24T01:59:33.759Z,16.37
2018-07-24T02:14:37.694Z,16.37
2018-07-24T02:29:41.505Z,17.80
2018-07-24T02:44:45.351Z,16.20
2018-07-24T02:59:49.426Z,16.50
2018-07-24T03:14:53.276Z,15.73
2018-07-24T03:29:57.396Z,16.00
2018-07-24T03:45:01.500Z,13.90
2018-07-24T04:00:06.448Z,14.03
2018-07-24T04:15:10.448Z,14.50
2018-07-24T04:30:14.255Z,13.40
2018-07-24T04:45:18.084Z,12.97
2018-07-24T05:00:22.093Z,13.53
2018-07-24T05:15:26.077Z,13.43
2018-07-24T05:30:29.955Z,14.97
2018-07-24T05:45:33.929Z,14.60
2018-07-24T06:00:37.877Z,14.03
2018-07-24T06:15:41.908Z,13.80
2018-07-24T06:30:45.980Z,13.07
2018-07-24T06:45:50.109Z,14.13
2018-07-24T07:00:54.022Z,13.83
2018-07-24T07:15:58.179Z,12.83
2018-07-24T07:31:02.124Z,13.87
2018-07-24T07:46:06.205Z,20.27
2018-07-24T08:01:10.408Z,11.40
2018-07-24T08:16:14.833Z,12.17
2018-07-24T08:31:19.048Z,11.23
2018-07-24T08:46:23.366Z,11.23
2018-07-24T09:01:27.392Z,11.10
2018-07-24T09:16:31.450Z,11.30
2018-07-24T09:31:36.356Z,9.30
2018-07-24T09:46:40.230Z,8.77
2018-07-24T10:01:44.116Z,8.40
2018-07-24T10:16:48.160Z,9.50
2018-07-24T10:31:52.126Z,9.37
2018-07-24T10:59:56.239Z,10.07
2018-07-24T11:15:00.215Z,9.43
2018-07-24T11:30:04.170Z,7.80
2018-07-24T11:45:08.395Z,7.70
2018-07-24T12:00:12.300Z,7.53
2018-07-24T12:15:16.161Z,7.17
2018-07-24T12:30:20.185Z,9.30
2018-07-24T12:45:23.915Z,10.60
2018-07-24T13:00:27.780Z,9.90
2018-07-24T13:15:31.805Z,14.37
2018-07-24T13:30:35.694Z,17.43
2018-07-24T13:45:39.801Z,17.80
2018-07-24T14:00:43.792Z,17.10
2018-07-24T14:15:47.766Z,15.70
2018-07-24T14:30:51.645Z,14.57
2018-07-24T14:45:55.460Z,12.60
2018-07-24T15:00:59.685Z,12.40
2018-07-24T15:16:03.859Z,9.20
2018-07-24T15:31:07.839Z,10.37
2018-07-24T15:46:11.696Z,11.23
2018-07-24T16:01:15.557Z,11.90
2018-07-24T16:16:19.424Z,13.00
2018-07-24T16:31:23.347Z,12.90
2018-07-24T16:46:27.429Z,14.60
2018-07-24T17:01:31.259Z,17.40
2018-07-24T17:16:35.258Z,16.13
2018-07-24T17:31:39.188Z,17.40
2018-07-24T17:46:43.121Z,16.63
2018-07-24T18:01:47.529Z,20.93
2018-07-24T18:16:51.703Z,16.27
2018-07-24T18:31:55.994Z,14.97
2018-07-24T18:47:00.406Z,14.47
2018-07-24T19:02:04.244Z,13.53
2018-07-24T19:17:08.614Z,13.93
2018-07-24T19:32:12.522Z,15.70
2018-07-24T19:47:16.569Z,15.00
2018-07-24T20:02:20.994Z,14.50
2018-07-24T20:17:25.085Z,15.40
2018-07-24T20:32:29.151Z,17.07
2018-07-24T20:47:33.281Z,16.23
2018-07-24T21:02:37.436Z,17.37
2018-07-24T21:17:41.881Z,17.23
2018-07-24T21:32:45.879Z,17.03
2018-07-24T21:47:49.890Z,18.23
2018-07-24T22:02:53.753Z,18.20
2018-07-24T22:17:58.185Z,21.30
2018-07-24T22:33:02.193Z,20.23
2018-07-24T22:48:06.136Z,22.87
2018-07-24T23:03:10.318Z,21.20
2018-07-24T23:18:14.332Z,21.17
2018-07-24T23:33:18.284Z,20.00
2018-07-24T23:48:22.296Z,23.37
